Time;durP1;ratioP1;P1;durP2;ratioP2;P2;SDS_P1;SDS_P2;PMS_P1;PMS_P2;Temp;Humidity;BMP_temperature;BMP_pressure;BME280_temperature;BME280_humidity;BME280_pressure;Samples;Min_cycle;Max_cycle;Signal;HPM_P1;HPM_P2
2023/08/10 00:01:43;;;;;;;;;;;;;;;;;;5073882;28;19924;-61
2023/08/10 00:04:08;;;;;;;;;;;;;;;;;;5072575;28;19931;-61
2023/08/10 00:06:34;;;;;;;;;;;;;;;;;;5069473;28;20301;-61
2023/08/10 00:09:00;;;;;;;;;;;;;;;;;;5074531;28;19924;-61
2023/08/10 00:11:26;;;;;;;;;;;;;;;;;;5071240;28;19985;-61
2023/08/10 00:13:52;;;;;;;;;;;;;;;;;;5071341;28;20358;-61
2023/08/10 00:16:18;;;;;;;;;;;;;;;;;;5068394;28;19960;-61
2023/08/10 00:18:44;;;;;;;;;;;;;;;;;;5072431;28;20312;-61
2023/08/10 00:21:10;;;;;;;;;;;;;;;;;;5069813;28;19924;-61
2023/08/10 00:23:36;;;;;;;;;;;;;;;;;;5069898;28;20304;-61
2023/08/10 00:26:03;;;;;;;;;;;;;;;;;;5072221;28;19924;-61
2023/08/10 00:28:28;;;;;;;;;;;;;;;;;;5072032;28;19970;-61
2023/08/10 00:30:55;;;;;;;;;;;;;;;;;;5072024;28;19921;-61
2023/08/10 00:33:21;;;;;;;;;;;;;;;;;;5071004;28;19925;-61
2023/08/10 00:35:46;;;;;;;;;;;;;;;;;;5069718;28;19940;-61
2023/08/10 00:38:12;;;;;;;;;;;;;;;;;;5070550;28;19964;-61
2023/08/10 00:40:38;;;;;;;;;;;;;;;;;;5072472;28;19927;-61
2023/08/10 00:43:05;;;;;;;;;;;;;;;;;;5069326;28;19966;-61
2023/08/10 00:45:31;;;;;;;;;;;;;;;;;;5070408;28;19959;-61
2023/08/10 00:47:57;;;;;;;;;;;;;;;;;;5070312;28;20369;-61
2023/08/10 00:50:23;;;;;;;;;;;;;;;;;;5071256;28;19924;-61
2023/08/10 00:52:49;;;;;;;;;;;;;;;;;;5070802;28;20015;-61
2023/08/10 00:55:15;;;;;;;;;;;;;;;;;;5069739;28;20032;-61
2023/08/10 00:57:41;;;;;;;;;;;;;;;;;;5068740;28;20366;-61
2023/08/10 01:00:10;;;;;;;;;;;;;;;;;;5068745;28;19928;-61
2023/08/10 01:02:36;;;;;;;;;;;;;;;;;;5070883;28;20293;-61
2023/08/10 01:05:01;;;;;;;;;;;;;;;;;;5071366;28;19920;-61
2023/08/10 01:07:27;;;;;;;;;;;;;;;;;;5071624;28;19963;-61
2023/08/10 01:09:53;;;;;;;;;;;;;;;;;;5069292;28;19924;-61
2023/08/10 01:12:19;;;;;;;;;;;;;;;;;;5069304;28;20856;-61
2023/08/10 01:14:45;;;;;;;;;;;;;;;;;;5063345;28;19968;-61
2023/08/10 01:17:12;;;;;;;;;;;;;;;;;;5068853;28;19925;-61
2023/08/10 01:19:38;;;;;;;;;;;;;;;;;;5070417;28;20011;-61
2023/08/10 01:22:04;;;;;;;;;;;;;;;;;;5069684;28;19965;-61
2023/08/10 01:24:30;;;;;;;;;;;;;;;;;;5070841;28;19920;-61
2023/08/10 01:26:56;;;;;;;;;;;;;;;;;;5068369;28;20389;-61
2023/08/10 01:29:22;;;;;;;;;;;;;;;;;;5069174;28;19921;-61
2023/08/10 01:31:47;;;;;;;;;;;;;;;;;;5065963;28;20385;-61
2023/08/10 01:34:13;;;;;;;;;;;;;;;;;;5068513;28;19920;-61
2023/08/10 01:36:39;;;;;;;;;;;;;;;;;;5069373;28;20007;-61
2023/08/10 01:39:05;;;;;;;;;;;;;;;;;;5064288;28;20385;-61
2023/08/10 01:41:31;;;;;;;;;;;;;;;;;;5070243;28;19920;-61
2023/08/10 01:43:57;;;;;;;;;;;;;;;;;;5070949;28;19960;-60
2023/08/10 01:46:23;;;;;;;;;;;;;;;;;;5070583;28;19925;-61
2023/08/10 01:48:49;;;;;;;;;;;;;;;;;;5072098;28;19927;-61
2023/08/10 01:51:15;;;;;;;;;;;;;;;;;;5071631;28;19924;-61
2023/08/10 01:53:41;;;;;;;;;;;;;;;;;;5069519;28;19952;-61
2023/08/10 01:56:06;;;;;;;;;;;;;;;;;;5067197;28;19929;-61
2023/08/10 01:58:32;;;;;;;;;;;;;;;;;;5070104;28;19920;-61
2023/08/10 02:00:58;;;;;;;;;;;;;;;;;;5067213;28;20374;-61
2023/08/10 02:03:24;;;;;;;;;;;;;;;;;;5068414;28;19927;-61
2023/08/10 02:05:50;;;;;;;;;;;;;;;;;;5058435;28;19932;-61
2023/08/10 02:08:16;;;;;;;;;;;;;;;;;;5070324;28;20346;-61
2023/08/10 02:10:42;;;;;;;;;;;;;;;;;;5070390;28;19975;-61
2023/08/10 02:13:09;;;;;;;;;;;;;;;;;;5068332;28;19920;-61
2023/08/10 02:15:34;;;;;;;;;;;;;;;;;;5068741;28;20374;-61
2023/08/10 02:18:00;;;;;;;;;;;;;;;;;;5069694;28;19921;-61
2023/08/10 02:20:26;;;;;;;;;;;;;;;;;;5068885;28;19928;-61
2023/08/10 02:22:52;;;;;;;;;;;;;;;;;;5070689;28;19932;-61
2023/08/10 02:25:18;;;;;;;;;;;;;;;;;;5069605;28;20349;-61
2023/08/10 02:27:44;;;;;;;;;;;;;;;;;;5070954;28;19920;-61
2023/08/10 02:30:10;;;;;;;;;;;;;;;;;;5071466;28;20253;-61
2023/08/10 02:32:36;;;;;;;;;;;;;;;;;;5073818;28;19932;-61
2023/08/10 02:35:04;;;;;;;;;;;;;;;;;;5075522;28;19936;-61
2023/08/10 02:37:30;;;;;;;;;;;;;;;;;;5062008;28;19924;-61
2023/08/10 02:39:56;;;;;;;;;;;;;;;;;;5074191;28;19927;-61
2023/08/10 02:42:22;;;;;;;;;;;;;;;;;;5073471;28;20577;-61
2023/08/10 02:44:51;;;;;;;;;;;;;;;;;;5071037;28;20255;-61
2023/08/10 02:47:17;;;;;;;;;;;;;;;;;;5073042;28;20289;-61
2023/08/10 02:49:43;;;;;;;;;;;;;;;;;;5072883;28;19920;-61
2023/08/10 02:52:09;;;;;;;;;;;;;;;;;;5073103;28;19925;-61
2023/08/10 02:54:35;;;;;;;;;;;;;;;;;;5069172;28;19924;-61
2023/08/10 02:57:01;;;;;;;;;;;;;;;;;;5070308;28;20255;-61
2023/08/10 02:59:27;;;;;;;;;;;;;;;;;;5072686;28;19924;-61
2023/08/10 03:01:53;;;;;;;;;;;;;;;;;;5072724;28;19978;-61
2023/08/10 03:04:19;;;;;;;;;;;;;;;;;;5073964;28;19924;-61
2023/08/10 03:06:45;;;;;;;;;;;;;;;;;;5071908;28;20263;-61
2023/08/10 03:09:11;;;;;;;;;;;;;;;;;;5074458;28;19920;-61
2023/08/10 03:11:37;;;;;;;;;;;;;;;;;;5070074;28;19932;-61
2023/08/10 03:14:02;;;;;;;;;;;;;;;;;;5073088;28;19920;-61
2023/08/10 03:16:29;;;;;;;;;;;;;;;;;;5071844;28;20023;-61
2023/08/10 03:18:55;;;;;;;;;;;;;;;;;;5072440;28;19924;-61
2023/08/10 03:21:21;;;;;;;;;;;;;;;;;;5074075;28;19924;-61
2023/08/10 03:23:47;;;;;;;;;;;;;;;;;;5072857;28;20321;-61
2023/08/10 03:26:13;;;;;;;;;;;;;;;;;;5071348;28;19920;-61
2023/08/10 03:28:39;;;;;;;;;;;;;;;;;;5070783;28;19924;-61
2023/08/10 03:31:05;;;;;;;;;;;;;;;;;;5070451;28;19924;-61
2023/08/10 03:33:31;;;;;;;;;;;;;;;;;;5070551;28;20370;-61
2023/08/10 03:35:57;;;;;;;;;;;;;;;;;;5072748;28;19937;-61
2023/08/10 03:38:22;;;;;;;;;;;;;;;;;;5069871;28;19928;-61
2023/08/10 03:40:48;;;;;;;;;;;;;;;;;;5071599;28;19921;-61
2023/08/10 03:43:15;;;;;;;;;;;;;;;;;;5071379;28;19921;-61
2023/08/10 03:45:40;;;;;;;;;;;;;;;;;;5071748;28;20543;-61
2023/08/10 03:48:06;;;;;;;;;;;;;;;;;;5073244;28;20002;-61
2023/08/10 03:50:32;;;;;;;;;;;;;;;;;;5071176;28;20067;-61
2023/08/10 03:52:58;;;;;;;;;;;;;;;;;;5054105;28;19920;-61
2023/08/10 03:55:24;;;;;;;;;;;;;;;;;;5067836;28;20342;-61
2023/08/10 03:57:50;;;;;;;;;;;;;;;;;;5067196;28;19924;-61
2023/08/10 04:00:16;;;;;;;;;;;;;;;;;;5071220;28;19921;-61
2023/08/10 04:02:42;;;;;;;;;;;;;;;;;;5072169;28;20018;-61
2023/08/10 04:05:08;;;;;;;;;;;;;;;;;;5073565;28;20077;-61
2023/08/10 04:07:34;;;;;;;;;;;;;;;;;;5073106;28;19925;-61
2023/08/10 04:09:59;;;;;;;;;;;;;;;;;;5070806;28;19921;-61
2023/08/10 04:12:26;;;;;;;;;;;;;;;;;;5073388;28;19920;-61
2023/08/10 04:14:52;;;;;;;;;;;;;;;;;;5072861;28;19982;-61
2023/08/10 04:17:18;;;;;;;;;;;;;;;;;;5072487;28;19928;-61
2023/08/10 04:19:44;;;;;;;;;;;;;;;;;;5072744;28;20304;-61
2023/08/10 04:22:10;;;;;;;;;;;;;;;;;;5068711;28;19935;-61
2023/08/10 04:24:36;;;;;;;;;;;;;;;;;;5072314;28;19924;-61
2023/08/10 04:27:02;;;;;;;;;;;;;;;;;;5061964;28;19920;-61
2023/08/10 04:29:28;;;;;;;;;;;;;;;;;;5070740;28;20247;-61
2023/08/10 04:31:54;;;;;;;;;;;;;;;;;;5072421;28;19925;-61
2023/08/10 04:34:20;;;;;;;;;;;;;;;;;;5072715;28;19967;-61
2023/08/10 04:39:14;;;;;;;;;;;;;;;;;;5032782;28;19939;-64
2023/08/10 04:41:40;;;;;;;;;;;;;;;;;;5038453;28;20397;-64
2023/08/10 04:44:06;;;;;;;;;;;;;;;;;;5048581;28;19925;-64
2023/08/10 04:46:32;;;;;;;;;;;;;;;;;;5043257;28;19979;-64
2023/08/10 04:48:58;;;;;;;;;;;;;;;;;;5015128;28;19944;-64
2023/08/10 04:51:24;;;;;;;;;;;;;;;;;;5015232;28;19925;-64
2023/08/10 04:53:50;;;;;;;;;;;;;;;;;;5032081;28;20047;-64
2023/08/10 04:56:16;;;;;;;;;;;;;;;;;;5033245;28;19925;-64
2023/08/10 04:58:41;;;;;;;;;;;;;;;;;;5036949;28;19928;-64
2023/08/10 05:01:09;;;;;;;;;;;;;;;;;;5037494;28;19948;-64
2023/08/10 05:03:35;;;;;;;;;;;;;;;;;;5052051;28;19967;-64
2023/08/10 05:06:02;;;;;;;;;;;;;;;;;;5050210;28;20768;-64
2023/08/10 05:08:28;;;;;;;;;;;;;;;;;;5032777;28;20405;-64
2023/08/10 05:10:54;;;;;;;;;;;;;;;;;;5051551;28;19921;-64
2023/08/10 05:13:19;;;;;;;;;;;;;;;;;;5032906;28;20634;-64
2023/08/10 05:15:45;;;;;;;;;;;;;;;;;;5041314;28;19929;-64
2023/08/10 05:18:12;;;;;;;;;;;;;;;;;;5050940;28;19921;-64
2023/08/10 05:20:37;;;;;;;;;;;;;;;;;;5046133;28;19921;-64
2023/08/10 05:23:03;;;;;;;;;;;;;;;;;;5051139;28;19994;-64
2023/08/10 05:25:29;;;;;;;;;;;;;;;;;;5050429;28;19925;-64
2023/08/10 05:27:55;;;;;;;;;;;;;;;;;;5050200;28;19925;-64
2023/08/10 05:30:21;;;;;;;;;;;;;;;;;;5048427;28;20399;-64
2023/08/10 05:32:47;;;;;;;;;;;;;;;;;;5041637;28;20857;-64
2023/08/10 05:35:13;;;;;;;;;;;;;;;;;;5050560;28;19933;-64
2023/08/10 05:37:39;;;;;;;;;;;;;;;;;;5051067;28;19928;-64
2023/08/10 05:40:09;;;;;;;;;;;;;;;;;;5052072;28;19921;-65
2023/08/10 05:42:35;;;;;;;;;;;;;;;;;;5050116;28;19921;-64
2023/08/10 05:45:01;;;;;;;;;;;;;;;;;;5049621;28;20012;-64
2023/08/10 05:47:27;;;;;;;;;;;;;;;;;;5049168;28;20305;-64
2023/08/10 05:49:53;;;;;;;;;;;;;;;;;;5039299;28;19991;-64
2023/08/10 05:52:19;;;;;;;;;;;;;;;;;;5046529;28;19932;-64
2023/08/10 05:54:45;;;;;;;;;;;;;;;;;;5049346;28;19931;-65
2023/08/10 05:57:11;;;;;;;;;;;;;;;;;;5038250;28;19924;-64
2023/08/10 05:59:37;;;;;;;;;;;;;;;;;;5039533;28;19928;-64
2023/08/10 06:02:02;;;;;;;;;;;;;;;;;;5042912;28;20008;-64
2023/08/10 06:04:28;;;;;;;;;;;;;;;;;;5049830;28;19963;-64
2023/08/10 06:06:54;;;;;;;;;;;;;;;;;;5047485;28;19963;-64
2023/08/10 06:09:20;;;;;;;;;;;;;;;;;;5050631;28;20420;-64
2023/08/10 06:11:46;;;;;;;;;;;;;;;;;;5050594;28;19928;-64
2023/08/10 06:14:12;;;;;;;;;;;;;;;;;;5050514;28;20541;-64
2023/08/10 06:16:38;;;;;;;;;;;;;;;;;;5051497;28;20405;-64
2023/08/10 06:19:04;;;;;;;;;;;;;;;;;;5049246;28;19927;-64
2023/08/10 06:21:30;;;;;;;;;;;;;;;;;;5051596;28;19927;-64
2023/08/10 06:23:56;;;;;;;;;;;;;;;;;;5022201;28;19928;-64
2023/08/10 06:26:22;;;;;;;;;;;;;;;;;;5050429;28;19921;-65
2023/08/10 06:28:48;;;;;;;;;;;;;;;;;;5051253;28;19921;-65
2023/08/10 06:31:14;;;;;;;;;;;;;;;;;;5050730;28;19921;-64
2023/08/10 06:33:41;;;;;;;;;;;;;;;;;;5050697;28;19932;-64
2023/08/10 06:36:07;;;;;;;;;;;;;;;;;;5049286;28;19928;-64
2023/08/10 06:38:34;;;;;;;;;;;;;;;;;;5045948;28;19945;-64
2023/08/10 06:41:00;;;;;;;;;;;;;;;;;;5036121;28;19925;-64
2023/08/10 06:43:26;;;;;;;;;;;;;;;;;;5021754;28;19921;-64
2023/08/10 06:45:52;;;;;;;;;;;;;;;;;;5051478;28;20024;-65
2023/08/10 06:48:18;;;;;;;;;;;;;;;;;;5051504;28;20364;-65
2023/08/10 06:50:43;;;;;;;;;;;;;;;;;;5051328;28;20315;-65
2023/08/10 06:53:11;;;;;;;;;;;;;;;;;;5051167;28;19974;-65
2023/08/10 06:55:38;;;;;;;;;;;;;;;;;;5032558;28;19929;-65
2023/08/10 06:58:04;;;;;;;;;;;;;;;;;;5031581;28;19948;-65
2023/08/10 07:00:30;;;;;;;;;;;;;;;;;;5043756;28;20374;-65
2023/08/10 07:02:56;;;;;;;;;;;;;;;;;;5044082;28;19921;-66
2023/08/10 07:05:22;;;;;;;;;;;;;;;;;;5031266;28;19974;-65
2023/08/10 07:07:49;;;;;;;;;;;;;;;;;;5051229;28;19921;-65
2023/08/10 07:10:15;;;;;;;;;;;;;;;;;;5048346;28;19925;-65
2023/08/10 07:12:42;;;;;;;;;;;;;;;;;;5050001;28;19924;-65
2023/08/10 07:15:08;;;;;;;;;;;;;;;;;;5037486;28;19925;-65
2023/08/10 07:17:34;;;;;;;;;;;;;;;;;;5052331;28;20324;-65
2023/08/10 07:20:00;;;;;;;;;;;;;;;;;;5051984;28;19925;-65
2023/08/10 07:22:26;;;;;;;;;;;;;;;;;;5052258;28;19927;-65
2023/08/10 07:24:52;;;;;;;;;;;;;;;;;;5053278;28;20249;-65
2023/08/10 07:27:18;;;;;;;;;;;;;;;;;;5030951;28;19925;-65
2023/08/10 07:29:43;;;;;;;;;;;;;;;;;;5051437;28;19925;-65
2023/08/10 07:32:10;;;;;;;;;;;;;;;;;;5050077;28;19929;-65
2023/08/10 07:34:36;;;;;;;;;;;;;;;;;;5045012;28;19968;-65
2023/08/10 07:37:02;;;;;;;;;;;;;;;;;;5049577;28;19921;-65
2023/08/10 07:39:29;;;;;;;;;;;;;;;;;;5049071;28;19920;-65
2023/08/10 07:41:55;;;;;;;;;;;;;;;;;;5043033;28;20397;-65
2023/08/10 07:44:21;;;;;;;;;;;;;;;;;;5026896;28;20301;-65
2023/08/10 07:46:48;;;;;;;;;;;;;;;;;;5048896;28;20020;-66
2023/08/10 07:49:14;;;;;;;;;;;;;;;;;;5040826;28;19925;-65
2023/08/10 07:51:43;;;;;;;;;;;;;;;;;;5052511;28;20342;-65
2023/08/10 07:54:09;;;;;;;;;;;;;;;;;;5049459;28;20281;-65
2023/08/10 07:56:35;;;;;;;;;;;;;;;;;;5048778;28;19943;-65
2023/08/10 07:59:01;;;;;;;;;;;;;;;;;;5046260;28;19921;-65
2023/08/10 08:01:27;;;;;;;;;;;;;;;;;;5046652;28;19962;-65
2023/08/10 08:03:53;;;;;;;;;;;;;;;;;;5046121;28;19979;-65
2023/08/10 08:06:19;;;;;;;;;;;;;;;;;;5039526;28;19933;-65
2023/08/10 08:08:45;;;;;;;;;;;;;;;;;;5043007;28;19928;-65
2023/08/10 08:11:11;;;;;;;;;;;;;;;;;;5046061;28;20007;-64
2023/08/10 08:13:37;;;;;;;;;;;;;;;;;;5051283;28;20384;-64
2023/08/10 08:16:02;;;;;;;;;;;;;;;;;;5012293;28;19929;-64
2023/08/10 08:18:28;;;;;;;;;;;;;;;;;;5047942;28;20424;-65
2023/08/10 08:20:54;;;;;;;;;;;;;;;;;;5051284;28;20088;-64
2023/08/10 08:23:20;;;;;;;;;;;;;;;;;;5050189;28;19931;-64
2023/08/10 08:25:46;;;;;;;;;;;;;;;;;;5046709;28;19928;-64
2023/08/10 08:28:12;;;;;;;;;;;;;;;;;;5050507;28;20266;-64
2023/08/10 08:30:38;;;;;;;;;;;;;;;;;;5052797;28;19920;-65
2023/08/10 08:33:04;;;;;;;;;;;;;;;;;;5052428;28;19932;-64
2023/08/10 08:35:30;;;;;;;;;;;;;;;;;;5052726;28;20374;-65
2023/08/10 08:37:55;;;;;;;;;;;;;;;;;;5052197;28;20334;-64
2023/08/10 08:40:21;;;;;;;;;;;;;;;;;;5044610;28;19968;-64
2023/08/10 08:42:47;;;;;;;;;;;;;;;;;;5050718;28;19929;-65
2023/08/10 08:45:13;;;;;;;;;;;;;;;;;;5052343;28;19924;-64
2023/08/10 08:47:39;;;;;;;;;;;;;;;;;;5052382;28;20310;-64
2023/08/10 08:50:06;;;;;;;;;;;;;;;;;;5034018;28;19920;-64
2023/08/10 08:52:32;;;;;;;;;;;;;;;;;;5015867;28;19931;-64
2023/08/10 08:54:58;;;;;;;;;;;;;;;;;;5049472;28;19925;-64
2023/08/10 08:57:24;;;;;;;;;;;;;;;;;;5042521;28;19921;-64
2023/08/10 08:59:50;;;;;;;;;;;;;;;;;;5047946;28;19928;-64
2023/08/10 09:02:16;;;;;;;;;;;;;;;;;;5025924;28;19929;-65
2023/08/10 09:04:41;;;;;;;;;;;;;;;;;;5043976;28;19979;-64
2023/08/10 09:07:07;;;;;;;;;;;;;;;;;;5050015;28;19921;-64
2023/08/10 09:09:33;;;;;;;;;;;;;;;;;;5049940;28;20290;-64
2023/08/10 09:11:59;;;;;;;;;;;;;;;;;;5036242;28;19925;-64
2023/08/10 09:14:25;;;;;;;;;;;;;;;;;;5043484;28;19920;-64
2023/08/10 09:16:51;;;;;;;;;;;;;;;;;;5041829;28;20244;-64
2023/08/10 09:19:17;;;;;;;;;;;;;;;;;;5036469;28;19932;-64
2023/08/10 09:21:43;;;;;;;;;;;;;;;;;;5034211;28;20059;-64
2023/08/10 09:24:09;;;;;;;;;;;;;;;;;;5042163;28;19928;-64
2023/08/10 09:26:34;;;;;;;;;;;;;;;;;;5033352;28;19925;-64
2023/08/10 09:29:00;;;;;;;;;;;;;;;;;;5037157;28;19925;-64
2023/08/10 09:31:26;;;;;;;;;;;;;;;;;;5035065;28;19921;-64
2023/08/10 09:33:52;;;;;;;;;;;;;;;;;;5036757;28;19935;-64
2023/08/10 09:36:18;;;;;;;;;;;;;;;;;;5048107;28;19933;-64
2023/08/10 09:38:44;;;;;;;;;;;;;;;;;;5050332;28;19928;-64
2023/08/10 09:41:10;;;;;;;;;;;;;;;;;;5049370;28;19920;-64
2023/08/10 09:43:36;;;;;;;;;;;;;;;;;;5032693;28;19928;-64
2023/08/10 09:46:04;;;;;;;;;;;;;;;;;;5048935;28;19921;-65
2023/08/10 09:48:30;;;;;;;;;;;;;;;;;;5034121;28;19925;-65
2023/08/10 09:50:55;;;;;;;;;;;;;;;;;;5042552;28;19932;-65
2023/08/10 09:53:21;;;;;;;;;;;;;;;;;;5042745;28;20398;-65
2023/08/10 09:55:47;;;;;;;;;;;;;;;;;;5028240;28;19924;-64
2023/08/10 09:58:13;;;;;;;;;;;;;;;;;;5049831;28;20419;-65
2023/08/10 10:00:39;;;;;;;;;;;;;;;;;;5046893;28;20023;-65
2023/08/10 10:03:05;;;;;;;;;;;;;;;;;;5039055;28;20023;-65
2023/08/10 10:05:31;;;;;;;;;;;;;;;;;;5046625;28;20456;-65
2023/08/10 10:07:57;;;;;;;;;;;;;;;;;;5042265;28;19921;-64
2023/08/10 10:10:23;;;;;;;;;;;;;;;;;;5044222;28;19925;-64
2023/08/10 10:12:50;;;;;;;;;;;;;;;;;;5036558;28;19921;-65
2023/08/10 10:15:16;;;;;;;;;;;;;;;;;;5044578;28;19932;-65
2023/08/10 10:17:41;;;;;;;;;;;;;;;;;;5051338;28;19925;-65
2023/08/10 10:20:11;;;;;;;;;;;;;;;;;;5051658;28;20267;-64
2023/08/10 10:22:37;;;;;;;;;;;;;;;;;;5025883;28;20593;-64
2023/08/10 10:25:03;;;;;;;;;;;;;;;;;;5047710;28;20039;-65
2023/08/10 10:27:30;;;;;;;;;;;;;;;;;;5014226;28;20561;-64
2023/08/10 10:29:56;;;;;;;;;;;;;;;;;;5043889;28;20448;-64
2023/08/10 10:32:21;;;;;;;;;;;;;;;;;;5050923;28;19928;-64
2023/08/10 10:34:49;;;;;;;;;;;;;;;;;;5047183;28;21383;-64
2023/08/10 10:37:15;;;;;;;;;;;;;;;;;;5047994;28;19928;-65
2023/08/10 10:39:41;;;;;;;;;;;;;;;;;;5033704;28;19921;-64
2023/08/10 10:42:07;;;;;;;;;;;;;;;;;;5048959;28;20023;-65
2023/08/10 10:44:33;;;;;;;;;;;;;;;;;;5042861;28;19971;-65
2023/08/10 10:46:59;;;;;;;;;;;;;;;;;;5040677;28;19926;-64
2023/08/10 10:49:25;;;;;;;;;;;;;;;;;;5044236;28;20321;-65
2023/08/10 10:51:51;;;;;;;;;;;;;;;;;;5047889;28;19921;-65
2023/08/10 10:54:17;;;;;;;;;;;;;;;;;;5054351;28;19925;-64
2023/08/10 10:56:43;;;;;;;;;;;;;;;;;;5036276;28;20279;-65
2023/08/10 10:59:09;;;;;;;;;;;;;;;;;;5054560;28;19921;-65
2023/08/10 11:01:35;;;;;;;;;;;;;;;;;;5041085;28;19921;-63
2023/08/10 11:04:01;;;;;;;;;;;;;;;;;;5036792;28;20313;-61
2023/08/10 11:06:27;;;;;;;;;;;;;;;;;;5053387;28;19921;-61
2023/08/10 11:08:56;;;;;;;;;;;;;;;;;;5004874;28;19928;-61
2023/08/10 11:11:22;;;;;;;;;;;;;;;;;;5035904;28;20447;-61
2023/08/10 11:13:48;;;;;;;;;;;;;;;;;;5053045;28;19974;-61
2023/08/10 11:16:14;;;;;;;;;;;;;;;;;;5054642;28;19932;-61
2023/08/10 11:18:42;;;;;;;;;;;;;;;;;;5005626;28;19948;-61
2023/08/10 11:21:08;;;;;;;;;;;;;;;;;;5034610;28;19928;-60
2023/08/10 11:23:34;;;;;;;;;;;;;;;;;;5034614;28;19929;-61
2023/08/10 11:26:02;;;;;;;;;;;;;;;;;;5043698;28;19936;-60
2023/08/10 11:28:28;;;;;;;;;;;;;;;;;;5048617;28;19978;-61
2023/08/10 11:30:54;;;;;;;;;;;;;;;;;;5056263;28;20012;-61
2023/08/10 11:33:19;;;;;;;;;;;;;;;;;;5048845;28;19928;-61
2023/08/10 11:35:45;;;;;;;;;;;;;;;;;;5053266;28;19925;-61
2023/08/10 11:38:11;;;;;;;;;;;;;;;;;;5051845;28;19929;-61
2023/08/10 11:40:37;;;;;;;;;;;;;;;;;;5049005;28;20381;-61
2023/08/10 11:43:03;;;;;;;;;;;;;;;;;;5050949;28;19928;-61
2023/08/10 11:45:29;;;;;;;;;;;;;;;;;;5049876;28;19925;-61
2023/08/10 11:47:58;;;;;;;;;;;;;;;;;;5054047;28;19978;-61
2023/08/10 11:50:23;;;;;;;;;;;;;;;;;;5044360;28;20023;-61
2023/08/10 11:52:49;;;;;;;;;;;;;;;;;;5052827;28;20012;-61
2023/08/10 11:55:16;;;;;;;;;;;;;;;;;;5047178;28;20517;-61
2023/08/10 11:57:42;;;;;;;;;;;;;;;;;;5052999;28;19925;-61
2023/08/10 12:00:09;;;;;;;;;;;;;;;;;;5048216;28;19955;-61
2023/08/10 12:02:35;;;;;;;;;;;;;;;;;;5044021;28;19925;-61
2023/08/10 12:05:01;;;;;;;;;;;;;;;;;;5027661;28;20373;-61
2023/08/10 12:07:27;;;;;;;;;;;;;;;;;;5042625;28;19928;-61
2023/08/10 12:09:54;;;;;;;;;;;;;;;;;;5008224;28;19970;-61
2023/08/10 12:12:20;;;;;;;;;;;;;;;;;;5053155;28;19928;-61
2023/08/10 12:14:46;;;;;;;;;;;;;;;;;;5053169;28;19930;-61
2023/08/10 12:17:12;;;;;;;;;;;;;;;;;;5053409;28;19932;-60
2023/08/10 12:19:38;;;;;;;;;;;;;;;;;;5051470;28;19924;-60
2023/08/10 12:22:03;;;;;;;;;;;;;;;;;;5015892;28;20428;-61
2023/08/10 12:24:29;;;;;;;;;;;;;;;;;;5033697;28;19932;-61
2023/08/10 12:26:55;;;;;;;;;;;;;;;;;;5033377;28;19933;-61
2023/08/10 12:29:21;;;;;;;;;;;;;;;;;;5050299;28;20516;-61
2023/08/10 12:31:47;;;;;;;;;;;;;;;;;;5053139;28;19921;-61
2023/08/10 12:34:13;;;;;;;;;;;;;;;;;;5053180;28;19951;-61
2023/08/10 12:36:39;;;;;;;;;;;;;;;;;;5052381;28;19928;-61
2023/08/10 12:39:05;;;;;;;;;;;;;;;;;;5040603;28;19936;-61
2023/08/10 12:41:31;;;;;;;;;;;;;;;;;;5041908;28;19932;-62
2023/08/10 12:43:57;;;;;;;;;;;;;;;;;;5020802;28;20119;-61
2023/08/10 12:46:23;;;;;;;;;;;;;;;;;;5039001;28;20000;-61
2023/08/10 12:48:48;;;;;;;;;;;;;;;;;;5047788;28;20381;-61
2023/08/10 12:51:14;;;;;;;;;;;;;;;;;;5039466;28;20461;-61
2023/08/10 12:53:41;;;;;;;;;;;;;;;;;;5037699;28;19948;-61
2023/08/10 12:56:07;;;;;;;;;;;;;;;;;;5018893;28;19929;-61
2023/08/10 12:58:33;;;;;;;;;;;;;;;;;;5044025;28;19929;-61
2023/08/10 13:00:59;;;;;;;;;;;;;;;;;;5039615;28;19929;-61
2023/08/10 13:03:24;;;;;;;;;;;;;;;;;;5046366;28;19925;-61
2023/08/10 13:05:50;;;;;;;;;;;;;;;;;;5041949;28;19931;-61
2023/08/10 13:08:17;;;;;;;;;;;;;;;;;;5044705;28;19921;-61
2023/08/10 13:10:43;;;;;;;;;;;;;;;;;;5047353;28;19925;-60
2023/08/10 13:13:09;;;;;;;;;;;;;;;;;;5042075;28;19931;-61
2023/08/10 13:15:35;;;;;;;;;;;;;;;;;;5032001;28;20262;-61
2023/08/10 13:18:00;;;;;;;;;;;;;;;;;;5049930;28;19921;-61
2023/08/10 13:20:26;;;;;;;;;;;;;;;;;;5047675;28;19921;-61
2023/08/10 13:22:53;;;;;;;;;;;;;;;;;;5045341;28;20020;-61
2023/08/10 13:25:19;;;;;;;;;;;;;;;;;;5041160;28;20004;-61
2023/08/10 13:27:44;;;;;;;;;;;;;;;;;;5044291;28;20367;-61
2023/08/10 13:30:10;;;;;;;;;;;;;;;;;;5042341;28;19925;-61
2023/08/10 13:32:36;;;;;;;;;;;;;;;;;;5015584;28;19944;-61
2023/08/10 13:35:02;;;;;;;;;;;;;;;;;;5016154;28;19933;-61
2023/08/10 13:37:32;;;;;;;;;;;;;;;;;;5037018;28;19925;-61
2023/08/10 13:39:58;;;;;;;;;;;;;;;;;;5046830;28;19935;-61
2023/08/10 13:42:24;;;;;;;;;;;;;;;;;;5051949;28;20012;-61
2023/08/10 13:44:50;;;;;;;;;;;;;;;;;;5037805;28;20326;-61
2023/08/10 13:47:18;;;;;;;;;;;;;;;;;;5051959;28;19932;-61
2023/08/10 13:49:44;;;;;;;;;;;;;;;;;;5050294;28;20025;-61
2023/08/10 13:52:10;;;;;;;;;;;;;;;;;;5047713;28;19921;-61
2023/08/10 13:54:37;;;;;;;;;;;;;;;;;;5049840;28;20281;-61
2023/08/10 13:57:11;;;;;;;;;;;;;;;;;;5048055;28;20004;-61
2023/08/10 13:59:37;;;;;;;;;;;;;;;;;;5050485;28;20431;-61
2023/08/10 14:02:03;;;;;;;;;;;;;;;;;;5044779;28;19921;-61
2023/08/10 14:04:29;;;;;;;;;;;;;;;;;;5046960;28;19925;-61
2023/08/10 14:06:55;;;;;;;;;;;;;;;;;;5027777;28;20032;-61
2023/08/10 14:09:21;;;;;;;;;;;;;;;;;;5055087;28;19931;-61
2023/08/10 14:11:47;;;;;;;;;;;;;;;;;;5038133;28;20508;-61
2023/08/10 14:14:16;;;;;;;;;;;;;;;;;;5045068;28;20002;-61
2023/08/10 14:16:42;;;;;;;;;;;;;;;;;;5045949;28;19974;-61
2023/08/10 14:19:08;;;;;;;;;;;;;;;;;;5034446;28;20007;-61
2023/08/10 14:21:33;;;;;;;;;;;;;;;;;;5044992;28;20138;-61
2023/08/10 14:24:01;;;;;;;;;;;;;;;;;;5037652;28;19925;-61
2023/08/10 14:26:27;;;;;;;;;;;;;;;;;;5040619;28;19921;-61
2023/08/10 14:28:53;;;;;;;;;;;;;;;;;;5051345;28;19921;-61
2023/08/10 14:31:18;;;;;;;;;;;;;;;;;;5044887;28;19933;-61
2023/08/10 14:33:44;;;;;;;;;;;;;;;;;;5045841;28;19925;-61
2023/08/10 14:36:11;;;;;;;;;;;;;;;;;;5047236;28;19928;-61
2023/08/10 14:38:37;;;;;;;;;;;;;;;;;;5043532;28;19924;-60
2023/08/10 14:41:03;;;;;;;;;;;;;;;;;;5042359;28;20341;-61
2023/08/10 14:43:29;;;;;;;;;;;;;;;;;;5049063;28;19939;-61
2023/08/10 14:45:55;;;;;;;;;;;;;;;;;;5037640;28;19927;-61
2023/08/10 14:48:21;;;;;;;;;;;;;;;;;;5047944;28;19929;-61
2023/08/10 14:50:47;;;;;;;;;;;;;;;;;;5038956;28;20069;-60
2023/08/10 14:53:13;;;;;;;;;;;;;;;;;;5030133;28;19935;-61
2023/08/10 14:55:39;;;;;;;;;;;;;;;;;;5027824;28;19932;-61
2023/08/10 14:58:04;;;;;;;;;;;;;;;;;;5040029;28;19925;-61
2023/08/10 15:00:31;;;;;;;;;;;;;;;;;;5024056;28;19971;-61
2023/08/10 15:02:57;;;;;;;;;;;;;;;;;;5046723;28;19967;-61
2023/08/10 15:05:23;;;;;;;;;;;;;;;;;;5045714;28;19925;-60
2023/08/10 15:07:49;;;;;;;;;;;;;;;;;;5046754;28;19924;-60
2023/08/10 15:10:15;;;;;;;;;;;;;;;;;;5046840;28;19920;-60
2023/08/10 15:12:41;;;;;;;;;;;;;;;;;;5035893;28;19947;-61
2023/08/10 15:15:08;;;;;;;;;;;;;;;;;;5048335;28;20255;-61
2023/08/10 15:17:34;;;;;;;;;;;;;;;;;;5037559;28;19928;-60
2023/08/10 15:20:00;;;;;;;;;;;;;;;;;;5054003;28;19929;-60
2023/08/10 15:22:26;;;;;;;;;;;;;;;;;;5052659;28;19978;-61
2023/08/10 15:24:52;;;;;;;;;;;;;;;;;;5041754;28;19920;-60
2023/08/10 15:27:18;;;;;;;;;;;;;;;;;;5047095;28;19925;-61
2023/08/10 15:29:45;;;;;;;;;;;;;;;;;;5051451;28;19931;-60
2023/08/10 15:32:11;;;;;;;;;;;;;;;;;;5049672;28;19929;-60
2023/08/10 15:34:36;;;;;;;;;;;;;;;;;;5037687;28;19944;-61
2023/08/10 15:37:02;;;;;;;;;;;;;;;;;;5046562;28;20267;-61
2023/08/10 15:39:28;;;;;;;;;;;;;;;;;;5052331;28;19925;-61
2023/08/10 15:41:55;;;;;;;;;;;;;;;;;;5053120;28;19921;-60
2023/08/10 15:44:21;;;;;;;;;;;;;;;;;;5045538;28;19925;-60
2023/08/10 15:46:46;;;;;;;;;;;;;;;;;;5044084;28;19928;-60
2023/08/10 15:49:12;;;;;;;;;;;;;;;;;;5052309;28;19925;-61
2023/08/10 15:51:38;;;;;;;;;;;;;;;;;;5051851;28;19974;-60
2023/08/10 15:54:04;;;;;;;;;;;;;;;;;;5048260;28;20004;-60
2023/08/10 15:56:30;;;;;;;;;;;;;;;;;;5049173;28;19925;-61
2023/08/10 15:58:56;;;;;;;;;;;;;;;;;;5050497;28;19963;-61
2023/08/10 16:01:22;;;;;;;;;;;;;;;;;;5041954;28;19920;-63
2023/08/10 16:03:49;;;;;;;;;;;;;;;;;;5032390;28;20004;-60
2023/08/10 16:06:15;;;;;;;;;;;;;;;;;;5051310;28;20011;-61
2023/08/10 16:08:41;;;;;;;;;;;;;;;;;;5021188;28;20572;-61
2023/08/10 16:11:06;;;;;;;;;;;;;;;;;;5044573;28;19924;-61
2023/08/10 16:13:32;;;;;;;;;;;;;;;;;;5051817;28;19929;-60
2023/08/10 16:15:58;;;;;;;;;;;;;;;;;;5050593;28;20436;-60
2023/08/10 16:18:24;;;;;;;;;;;;;;;;;;5047868;28;19936;-61
2023/08/10 16:20:50;;;;;;;;;;;;;;;;;;5050816;28;19933;-60
2023/08/10 16:23:16;;;;;;;;;;;;;;;;;;5052443;28;19965;-60
2023/08/10 16:25:42;;;;;;;;;;;;;;;;;;5052904;28;19990;-60
2023/08/10 16:28:08;;;;;;;;;;;;;;;;;;5050640;28;19921;-61
2023/08/10 16:30:34;;;;;;;;;;;;;;;;;;5050804;28;19929;-61
2023/08/10 16:33:00;;;;;;;;;;;;;;;;;;5027553;28;19994;-61
2023/08/10 16:35:26;;;;;;;;;;;;;;;;;;5041140;28;19921;-61
2023/08/10 16:37:52;;;;;;;;;;;;;;;;;;5051892;28;19929;-61
2023/08/10 16:40:18;;;;;;;;;;;;;;;;;;5050886;28;19927;-60